sensor_id;sensor_type;location;lat;lon;timestamp;P1;durP1;ratioP1;P2;durP2;ratioP2
51286;SDS011;37364;46.974;18.916;2022-07-23T00:00:04;10.30;;;5.25;;
51286;SDS011;37364;46.974;18.916;2022-07-23T00:02:39;16.67;;;5.18;;
51286;SDS011;37364;46.974;18.916;2022-07-23T00:05:10;9.55;;;4.97;;
51286;SDS011;37364;46.974;18.916;2022-07-23T00:07:40;15.02;;;5.13;;
51286;SDS011;37364;46.974;18.916;2022-07-23T00:10:10;20.98;;;5.38;;
51286;SDS011;37364;46.974;18.916;2022-07-23T00:12:41;9.77;;;4.95;;
51286;SDS011;37364;46.974;18.916;2022-07-23T00:15:17;25.38;;;5.38;;
51286;SDS011;37364;46.974;18.916;2022-07-23T00:17:51;15.40;;;5.78;;
51286;SDS011;37364;46.974;18.916;2022-07-23T00:20:21;13.88;;;5.05;;
51286;SDS011;37364;46.974;18.916;2022-07-23T00:22:52;8.43;;;5.38;;
51286;SDS011;37364;46.974;18.916;2022-07-23T00:25:23;8.93;;;5.43;;
51286;SDS011;37364;46.974;18.916;2022-07-23T00:27:56;19.52;;;5.28;;
51286;SDS011;37364;46.974;18.916;2022-07-23T00:30:27;17.92;;;5.68;;
51286;SDS011;37364;46.974;18.916;2022-07-23T00:33:02;11.87;;;5.27;;
51286;SDS011;37364;46.974;18.916;2022-07-23T00:35:35;17.00;;;5.20;;
51286;SDS011;37364;46.974;18.916;2022-07-23T00:38:07;13.25;;;5.20;;
51286;SDS011;37364;46.974;18.916;2022-07-23T00:40:39;11.68;;;4.70;;
51286;SDS011;37364;46.974;18.916;2022-07-23T00:43:10;19.98;;;5.55;;
51286;SDS011;37364;46.974;18.916;2022-07-23T00:45:41;7.28;;;4.90;;
51286;SDS011;37364;46.974;18.916;2022-07-23T00:48:14;15.38;;;5.47;;
51286;SDS011;37364;46.974;18.916;2022-07-23T00:50:44;24.98;;;5.85;;
51286;SDS011;37364;46.974;18.916;2022-07-23T00:53:14;10.23;;;5.43;;
51286;SDS011;37364;46.974;18.916;2022-07-23T00:55:45;11.05;;;4.57;;
51286;SDS011;37364;46.974;18.916;2022-07-23T00:58:16;19.30;;;5.82;;
51286;SDS011;37364;46.974;18.916;2022-07-23T01:00:48;13.18;;;5.63;;
51286;SDS011;37364;46.974;18.916;2022-07-23T01:03:21;8.32;;;4.88;;
51286;SDS011;37364;46.974;18.916;2022-07-23T01:05:51;14.40;;;5.38;;
51286;SDS011;37364;46.974;18.916;2022-07-23T01:08:22;9.80;;;4.93;;
51286;SDS011;37364;46.974;18.916;2022-07-23T01:10:52;15.30;;;5.35;;
51286;SDS011;37364;46.974;18.916;2022-07-23T01:13:24;9.63;;;5.40;;
51286;SDS011;37364;46.974;18.916;2022-07-23T01:15:54;24.17;;;5.95;;
51286;SDS011;37364;46.974;18.916;2022-07-23T01:18:27;17.90;;;5.30;;
51286;SDS011;37364;46.974;18.916;2022-07-23T01:20:57;13.77;;;5.38;;
51286;SDS011;37364;46.974;18.916;2022-07-23T01:23:30;15.70;;;6.03;;
51286;SDS011;37364;46.974;18.916;2022-07-23T01:26:01;5.57;;;4.43;;
51286;SDS011;37364;46.974;18.916;2022-07-23T01:28:31;12.68;;;5.78;;
51286;SDS011;37364;46.974;18.916;2022-07-23T01:31:02;14.32;;;6.13;;
51286;SDS011;37364;46.974;18.916;2022-07-23T01:33:34;12.57;;;5.72;;
51286;SDS011;37364;46.974;18.916;2022-07-23T01:36:05;12.65;;;5.57;;
51286;SDS011;37364;46.974;18.916;2022-07-23T01:38:39;14.20;;;4.72;;
51286;SDS011;37364;46.974;18.916;2022-07-23T01:41:09;12.48;;;5.70;;
51286;SDS011;37364;46.974;18.916;2022-07-23T01:43:40;13.70;;;5.50;;
51286;SDS011;37364;46.974;18.916;2022-07-23T01:46:11;15.65;;;5.18;;
51286;SDS011;37364;46.974;18.916;2022-07-23T01:48:46;18.45;;;5.18;;
51286;SDS011;37364;46.974;18.916;2022-07-23T01:51:42;9.90;;;5.05;;
51286;SDS011;37364;46.974;18.916;2022-07-23T01:54:33;10.07;;;5.55;;
51286;SDS011;37364;46.974;18.916;2022-07-23T01:57:05;15.85;;;6.18;;
51286;SDS011;37364;46.974;18.916;2022-07-23T01:59:37;17.15;;;5.75;;
51286;SDS011;37364;46.974;18.916;2022-07-23T02:02:08;14.60;;;5.85;;
51286;SDS011;37364;46.974;18.916;2022-07-23T02:04:39;9.30;;;5.13;;
51286;SDS011;37364;46.974;18.916;2022-07-23T02:07:09;9.52;;;5.60;;
51286;SDS011;37364;46.974;18.916;2022-07-23T02:09:42;15.23;;;5.60;;
51286;SDS011;37364;46.974;18.916;2022-07-23T02:12:12;13.13;;;5.93;;
51286;SDS011;37364;46.974;18.916;2022-07-23T02:14:44;10.10;;;5.47;;
51286;SDS011;37364;46.974;18.916;2022-07-23T02:17:14;13.93;;;6.05;;
51286;SDS011;37364;46.974;18.916;2022-07-23T02:19:44;17.05;;;6.13;;
51286;SDS011;37364;46.974;18.916;2022-07-23T02:22:14;15.65;;;5.82;;
51286;SDS011;37364;46.974;18.916;2022-07-23T02:24:47;14.38;;;6.10;;
51286;SDS011;37364;46.974;18.916;2022-07-23T02:27:18;15.65;;;5.35;;
51286;SDS011;37364;46.974;18.916;2022-07-23T02:29:48;13.65;;;5.75;;
51286;SDS011;37364;46.974;18.916;2022-07-23T02:32:19;10.70;;;5.97;;
51286;SDS011;37364;46.974;18.916;2022-07-23T02:34:50;10.52;;;5.53;;
51286;SDS011;37364;46.974;18.916;2022-07-23T02:37:21;15.40;;;6.32;;
51286;SDS011;37364;46.974;18.916;2022-07-23T02:39:54;18.50;;;6.25;;
51286;SDS011;37364;46.974;18.916;2022-07-23T02:44:54;17.30;;;6.88;;
51286;SDS011;37364;46.974;18.916;2022-07-23T02:47:25;15.48;;;6.43;;
51286;SDS011;37364;46.974;18.916;2022-07-23T02:49:56;13.52;;;6.75;;
51286;SDS011;37364;46.974;18.916;2022-07-23T02:52:28;15.82;;;6.72;;
51286;SDS011;37364;46.974;18.916;2022-07-23T02:55:01;21.85;;;6.93;;
51286;SDS011;37364;46.974;18.916;2022-07-23T02:57:31;18.42;;;6.60;;
51286;SDS011;37364;46.974;18.916;2022-07-23T03:00:02;16.60;;;5.93;;
51286;SDS011;37364;46.974;18.916;2022-07-23T03:02:33;11.05;;;5.65;;
51286;SDS011;37364;46.974;18.916;2022-07-23T03:05:04;15.02;;;6.70;;
51286;SDS011;37364;46.974;18.916;2022-07-23T03:07:35;27.42;;;7.53;;
51286;SDS011;37364;46.974;18.916;2022-07-23T03:10:08;32.65;;;6.47;;
51286;SDS011;37364;46.974;18.916;2022-07-23T03:12:38;14.18;;;6.65;;
51286;SDS011;37364;46.974;18.916;2022-07-23T03:15:09;10.63;;;6.07;;
51286;SDS011;37364;46.974;18.916;2022-07-23T03:17:40;37.10;;;6.90;;
51286;SDS011;37364;46.974;18.916;2022-07-23T03:20:12;22.33;;;6.95;;
51286;SDS011;37364;46.974;18.916;2022-07-23T03:22:42;18.05;;;7.10;;
51286;SDS011;37364;46.974;18.916;2022-07-23T03:25:15;21.38;;;7.03;;
51286;SDS011;37364;46.974;18.916;2022-07-23T03:27:46;21.60;;;6.82;;
51286;SDS011;37364;46.974;18.916;2022-07-23T03:30:17;14.23;;;6.05;;
51286;SDS011;37364;46.974;18.916;2022-07-23T03:32:48;12.82;;;6.70;;
51286;SDS011;37364;46.974;18.916;2022-07-23T03:35:18;20.48;;;6.97;;
51286;SDS011;37364;46.974;18.916;2022-07-23T03:38:03;12.63;;;7.03;;
51286;SDS011;37364;46.974;18.916;2022-07-23T03:40:36;20.48;;;5.95;;
51286;SDS011;37364;46.974;18.916;2022-07-23T03:43:07;13.13;;;8.45;;
51286;SDS011;37364;46.974;18.916;2022-07-23T03:45:37;20.75;;;7.07;;
51286;SDS011;37364;46.974;18.916;2022-07-23T03:48:08;19.60;;;7.75;;
51286;SDS011;37364;46.974;18.916;2022-07-23T03:50:38;25.08;;;7.47;;
51286;SDS011;37364;46.974;18.916;2022-07-23T03:53:09;19.50;;;8.27;;
51286;SDS011;37364;46.974;18.916;2022-07-23T03:55:42;14.43;;;7.15;;
51286;SDS011;37364;46.974;18.916;2022-07-23T03:58:13;18.92;;;8.20;;
51286;SDS011;37364;46.974;18.916;2022-07-23T04:00:43;14.75;;;6.75;;
51286;SDS011;37364;46.974;18.916;2022-07-23T04:03:15;10.50;;;7.40;;
51286;SDS011;37364;46.974;18.916;2022-07-23T04:05:45;31.65;;;9.00;;
51286;SDS011;37364;46.974;18.916;2022-07-23T04:08:15;21.25;;;8.23;;
51286;SDS011;37364;46.974;18.916;2022-07-23T04:10:52;14.30;;;8.90;;
51286;SDS011;37364;46.974;18.916;2022-07-23T04:13:23;33.20;;;10.85;;
51286;SDS011;37364;46.974;18.916;2022-07-23T04:15:53;22.20;;;9.18;;
51286;SDS011;37364;46.974;18.916;2022-07-23T04:18:24;22.52;;;9.48;;
51286;SDS011;37364;46.974;18.916;2022-07-23T04:21:01;23.60;;;10.02;;
51286;SDS011;37364;46.974;18.916;2022-07-23T04:23:33;21.13;;;10.35;;
51286;SDS011;37364;46.974;18.916;2022-07-23T04:26:07;17.17;;;10.63;;
51286;SDS011;37364;46.974;18.916;2022-07-23T04:28:45;34.85;;;12.95;;
51286;SDS011;37364;46.974;18.916;2022-07-23T04:31:15;21.27;;;10.98;;
51286;SDS011;37364;46.974;18.916;2022-07-23T04:33:46;21.23;;;12.77;;
51286;SDS011;37364;46.974;18.916;2022-07-23T04:36:16;28.55;;;12.15;;
51286;SDS011;37364;46.974;18.916;2022-07-23T04:38:46;35.53;;;11.73;;
51286;SDS011;37364;46.974;18.916;2022-07-23T04:43:52;25.30;;;11.07;;
51286;SDS011;37364;46.974;18.916;2022-07-23T04:46:22;26.55;;;10.65;;
51286;SDS011;37364;46.974;18.916;2022-07-23T04:48:54;32.65;;;10.55;;
51286;SDS011;37364;46.974;18.916;2022-07-23T04:51:26;23.13;;;10.07;;
51286;SDS011;37364;46.974;18.916;2022-07-23T04:53:56;23.73;;;9.98;;
51286;SDS011;37364;46.974;18.916;2022-07-23T04:56:29;14.65;;;9.10;;
51286;SDS011;37364;46.974;18.916;2022-07-23T04:58:59;24.95;;;10.43;;
51286;SDS011;37364;46.974;18.916;2022-07-23T05:01:30;23.20;;;9.80;;
51286;SDS011;37364;46.974;18.916;2022-07-23T05:04:01;24.65;;;9.63;;
51286;SDS011;37364;46.974;18.916;2022-07-23T05:06:35;26.58;;;8.57;;
51286;SDS011;37364;46.974;18.916;2022-07-23T05:09:05;20.52;;;8.15;;
51286;SDS011;37364;46.974;18.916;2022-07-23T05:11:38;33.83;;;9.13;;
51286;SDS011;37364;46.974;18.916;2022-07-23T05:14:08;15.25;;;8.30;;
51286;SDS011;37364;46.974;18.916;2022-07-23T05:16:39;30.35;;;8.18;;
51286;SDS011;37364;46.974;18.916;2022-07-23T05:19:15;16.75;;;8.05;;
51286;SDS011;37364;46.974;18.916;2022-07-23T05:21:51;30.90;;;8.77;;
51286;SDS011;37364;46.974;18.916;2022-07-23T05:24:22;28.85;;;8.43;;
51286;SDS011;37364;46.974;18.916;2022-07-23T05:26:55;21.65;;;8.82;;
51286;SDS011;37364;46.974;18.916;2022-07-23T05:29:26;29.00;;;8.07;;
51286;SDS011;37364;46.974;18.916;2022-07-23T05:31:56;22.42;;;8.68;;
51286;SDS011;37364;46.974;18.916;2022-07-23T05:34:29;30.20;;;8.80;;
51286;SDS011;37364;46.974;18.916;2022-07-23T05:36:59;32.47;;;9.02;;
51286;SDS011;37364;46.974;18.916;2022-07-23T05:39:29;31.85;;;8.60;;
51286;SDS011;37364;46.974;18.916;2022-07-23T05:42:02;25.73;;;9.57;;
51286;SDS011;37364;46.974;18.916;2022-07-23T05:44:33;23.42;;;9.88;;
51286;SDS011;37364;46.974;18.916;2022-07-23T05:47:04;34.50;;;10.05;;
51286;SDS011;37364;46.974;18.916;2022-07-23T05:49:36;19.83;;;11.38;;
51286;SDS011;37364;46.974;18.916;2022-07-23T05:52:26;33.97;;;10.88;;
51286;SDS011;37364;46.974;18.916;2022-07-23T05:55:15;35.17;;;12.32;;
51286;SDS011;37364;46.974;18.916;2022-07-23T05:57:48;28.42;;;11.57;;
51286;SDS011;37364;46.974;18.916;2022-07-23T06:00:18;27.27;;;10.23;;
51286;SDS011;37364;46.974;18.916;2022-07-23T06:02:49;45.78;;;11.55;;
51286;SDS011;37364;46.974;18.916;2022-07-23T06:05:22;30.80;;;11.07;;
51286;SDS011;37364;46.974;18.916;2022-07-23T06:07:55;25.55;;;10.80;;
51286;SDS011;37364;46.974;18.916;2022-07-23T06:10:26;40.40;;;10.52;;
51286;SDS011;37364;46.974;18.916;2022-07-23T06:12:59;27.00;;;10.65;;
51286;SDS011;37364;46.974;18.916;2022-07-23T06:15:30;43.80;;;8.52;;
51286;SDS011;37364;46.974;18.916;2022-07-23T06:18:01;25.40;;;8.80;;
51286;SDS011;37364;46.974;18.916;2022-07-23T06:20:31;37.22;;;8.77;;
51286;SDS011;37364;46.974;18.916;2022-07-23T06:23:01;32.35;;;8.20;;
51286;SDS011;37364;46.974;18.916;2022-07-23T06:25:31;40.30;;;8.07;;
51286;SDS011;37364;46.974;18.916;2022-07-23T06:28:06;35.80;;;6.63;;
51286;SDS011;37364;46.974;18.916;2022-07-23T06:33:07;24.48;;;7.07;;
51286;SDS011;37364;46.974;18.916;2022-07-23T06:35:39;13.27;;;7.10;;
51286;SDS011;37364;46.974;18.916;2022-07-23T06:38:09;22.38;;;7.57;;
51286;SDS011;37364;46.974;18.916;2022-07-23T06:40:41;41.65;;;8.02;;
51286;SDS011;37364;46.974;18.916;2022-07-23T06:43:14;15.52;;;7.82;;
51286;SDS011;37364;46.974;18.916;2022-07-23T06:45:44;28.05;;;7.35;;
51286;SDS011;37364;46.974;18.916;2022-07-23T06:48:15;22.60;;;7.50;;
51286;SDS011;37364;46.974;18.916;2022-07-23T06:50:45;18.75;;;7.82;;
51286;SDS011;37364;46.974;18.916;2022-07-23T06:53:15;19.50;;;7.40;;
51286;SDS011;37364;46.974;18.916;2022-07-23T06:55:46;36.53;;;6.93;;
51286;SDS011;37364;46.974;18.916;2022-07-23T06:58:18;29.15;;;8.07;;
51286;SDS011;37364;46.974;18.916;2022-07-23T07:00:49;24.08;;;7.43;;
51286;SDS011;37364;46.974;18.916;2022-07-23T07:03:20;38.13;;;10.88;;
51286;SDS011;37364;46.974;18.916;2022-07-23T07:05:50;14.57;;;7.50;;
51286;SDS011;37364;46.974;18.916;2022-07-23T07:08:20;27.10;;;9.38;;
51286;SDS011;37364;46.974;18.916;2022-07-23T07:10:50;35.65;;;11.98;;
51286;SDS011;37364;46.974;18.916;2022-07-23T07:13:23;39.75;;;11.23;;
51286;SDS011;37364;46.974;18.916;2022-07-23T07:15:53;38.88;;;12.68;;
51286;SDS011;37364;46.974;18.916;2022-07-23T07:18:24;40.60;;;13.75;;
51286;SDS011;37364;46.974;18.916;2022-07-23T07:20:54;26.90;;;13.68;;
51286;SDS011;37364;46.974;18.916;2022-07-23T07:23:24;38.67;;;13.93;;
51286;SDS011;37364;46.974;18.916;2022-07-23T07:25:54;35.00;;;13.15;;
51286;SDS011;37364;46.974;18.916;2022-07-23T07:28:27;30.38;;;13.60;;
51286;SDS011;37364;46.974;18.916;2022-07-23T07:30:57;49.10;;;14.20;;
51286;SDS011;37364;46.974;18.916;2022-07-23T07:33:29;50.90;;;13.52;;
51286;SDS011;37364;46.974;18.916;2022-07-23T07:35:59;48.20;;;14.07;;
51286;SDS011;37364;46.974;18.916;2022-07-23T07:38:30;46.53;;;15.07;;
51286;SDS011;37364;46.974;18.916;2022-07-23T07:41:00;43.70;;;17.10;;
51286;SDS011;37364;46.974;18.916;2022-07-23T07:43:33;60.22;;;18.27;;
51286;SDS011;37364;46.974;18.916;2022-07-23T07:46:03;49.42;;;15.60;;
51286;SDS011;37364;46.974;18.916;2022-07-23T07:48:36;47.40;;;14.70;;
51286;SDS011;37364;46.974;18.916;2022-07-23T07:51:07;40.35;;;12.73;;
51286;SDS011;37364;46.974;18.916;2022-07-23T07:53:37;33.47;;;14.88;;
51286;SDS011;37364;46.974;18.916;2022-07-23T07:56:07;42.80;;;13.52;;
51286;SDS011;37364;46.974;18.916;2022-07-23T07:58:40;37.03;;;11.40;;
51286;SDS011;37364;46.974;18.916;2022-07-23T08:01:11;40.10;;;10.90;;
51286;SDS011;37364;46.974;18.916;2022-07-23T08:03:41;26.10;;;10.88;;
51286;SDS011;37364;46.974;18.916;2022-07-23T08:06:11;47.33;;;13.25;;
51286;SDS011;37364;46.974;18.916;2022-07-23T08:08:41;32.22;;;12.38;;
51286;SDS011;37364;46.974;18.916;2022-07-23T08:11:11;48.03;;;12.88;;
51286;SDS011;37364;46.974;18.916;2022-07-23T08:13:44;55.33;;;14.18;;
51286;SDS011;37364;46.974;18.916;2022-07-23T08:16:14;41.35;;;14.05;;
51286;SDS011;37364;46.974;18.916;2022-07-23T08:18:45;42.55;;;13.13;;
51286;SDS011;37364;46.974;18.916;2022-07-23T08:21:16;39.35;;;13.63;;
51286;SDS011;37364;46.974;18.916;2022-07-23T08:23:46;40.42;;;13.38;;
51286;SDS011;37364;46.974;18.916;2022-07-23T08:26:16;42.08;;;13.95;;
51286;SDS011;37364;46.974;18.916;2022-07-23T08:28:49;39.45;;;13.48;;
51286;SDS011;37364;46.974;18.916;2022-07-23T08:31:19;41.00;;;13.27;;
51286;SDS011;37364;46.974;18.916;2022-07-23T08:33:49;42.97;;;12.07;;
51286;SDS011;37364;46.974;18.916;2022-07-23T08:36:19;30.15;;;11.52;;
51286;SDS011;37364;46.974;18.916;2022-07-23T08:38:49;24.02;;;9.07;;
51286;SDS011;37364;46.974;18.916;2022-07-23T08:41:19;25.98;;;9.23;;
51286;SDS011;37364;46.974;18.916;2022-07-23T08:43:52;20.08;;;8.55;;
51286;SDS011;37364;46.974;18.916;2022-07-23T08:46:23;19.67;;;8.35;;
51286;SDS011;37364;46.974;18.916;2022-07-23T08:48:54;20.92;;;8.98;;
51286;SDS011;37364;46.974;18.916;2022-07-23T08:51:25;28.35;;;9.55;;
51286;SDS011;37364;46.974;18.916;2022-07-23T08:53:56;40.10;;;9.98;;
51286;SDS011;37364;46.974;18.916;2022-07-23T08:56:28;30.23;;;11.57;;
51286;SDS011;37364;46.974;18.916;2022-07-23T08:59:01;34.72;;;10.80;;
51286;SDS011;37364;46.974;18.916;2022-07-23T09:01:31;30.52;;;12.02;;
51286;SDS011;37364;46.974;18.916;2022-07-23T09:04:01;30.17;;;11.15;;
51286;SDS011;37364;46.974;18.916;2022-07-23T09:06:31;21.92;;;9.27;;
51286;SDS011;37364;46.974;18.916;2022-07-23T09:09:15;23.50;;;7.88;;
51286;SDS011;37364;46.974;18.916;2022-07-23T09:11:46;20.13;;;5.63;;
51286;SDS011;37364;46.974;18.916;2022-07-23T09:14:21;21.23;;;5.22;;
51286;SDS011;37364;46.974;18.916;2022-07-23T09:17:10;17.42;;;4.28;;
51286;SDS011;37364;46.974;18.916;2022-07-23T09:19:41;30.13;;;4.55;;
51286;SDS011;37364;46.974;18.916;2022-07-23T09:22:17;17.52;;;3.95;;
51286;SDS011;37364;46.974;18.916;2022-07-23T09:25:03;19.67;;;4.25;;
51286;SDS011;37364;46.974;18.916;2022-07-23T09:27:45;15.90;;;4.57;;
51286;SDS011;37364;46.974;18.916;2022-07-23T09:30:24;11.05;;;4.10;;
51286;SDS011;37364;46.974;18.916;2022-07-23T09:33:08;7.20;;;3.70;;
51286;SDS011;37364;46.974;18.916;2022-07-23T09:35:46;8.15;;;3.22;;
51286;SDS011;37364;46.974;18.916;2022-07-23T09:38:19;18.42;;;3.47;;
51286;SDS011;37364;46.974;18.916;2022-07-23T09:41:05;21.92;;;3.83;;
51286;SDS011;37364;46.974;18.916;2022-07-23T09:43:36;17.65;;;4.28;;
51286;SDS011;37364;46.974;18.916;2022-07-23T09:46:22;15.40;;;3.45;;
51286;SDS011;37364;46.974;18.916;2022-07-23T09:48:53;16.10;;;3.42;;
51286;SDS011;37364;46.974;18.916;2022-07-23T09:51:26;18.70;;;4.35;;
51286;SDS011;37364;46.974;18.916;2022-07-23T09:54:00;17.63;;;4.05;;
51286;SDS011;37364;46.974;18.916;2022-07-23T09:56:31;15.82;;;3.83;;
51286;SDS011;37364;46.974;18.916;2022-07-23T09:59:04;16.83;;;3.83;;
51286;SDS011;37364;46.974;18.916;2022-07-23T10:01:39;22.80;;;3.92;;
51286;SDS011;37364;46.974;18.916;2022-07-23T10:04:09;10.98;;;4.00;;
51286;SDS011;37364;46.974;18.916;2022-07-23T10:07:05;10.10;;;3.15;;
51286;SDS011;37364;46.974;18.916;2022-07-23T10:09:56;10.35;;;3.40;;
51286;SDS011;37364;46.974;18.916;2022-07-23T10:12:47;10.68;;;3.95;;
51286;SDS011;37364;46.974;18.916;2022-07-23T10:15:30;22.98;;;3.88;;
51286;SDS011;37364;46.974;18.916;2022-07-23T10:18:03;15.85;;;3.90;;
51286;SDS011;37364;46.974;18.916;2022-07-23T10:20:33;17.55;;;4.57;;
51286;SDS011;37364;46.974;18.916;2022-07-23T10:23:05;16.60;;;3.63;;
51286;SDS011;37364;46.974;18.916;2022-07-23T10:25:46;21.33;;;4.20;;
51286;SDS011;37364;46.974;18.916;2022-07-23T10:28:38;8.63;;;3.78;;
51286;SDS011;37364;46.974;18.916;2022-07-23T10:31:26;16.95;;;4.22;;
51286;SDS011;37364;46.974;18.916;2022-07-23T10:34:29;21.48;;;4.50;;
51286;SDS011;37364;46.974;18.916;2022-07-23T10:37:12;31.92;;;4.47;;
51286;SDS011;37364;46.974;18.916;2022-07-23T10:42:40;12.02;;;3.72;;
51286;SDS011;37364;46.974;18.916;2022-07-23T10:45:24;23.73;;;4.18;;
51286;SDS011;37364;46.974;18.916;2022-07-23T10:48:11;12.40;;;3.47;;
51286;SDS011;37364;46.974;18.916;2022-07-23T10:53:55;8.85;;;3.22;;
51286;SDS011;37364;46.974;18.916;2022-07-23T10:59:20;6.18;;;2.70;;
51286;SDS011;37364;46.974;18.916;2022-07-23T11:01:50;9.18;;;3.15;;
51286;SDS011;37364;46.974;18.916;2022-07-23T11:04:21;11.77;;;3.45;;
51286;SDS011;37364;46.974;18.916;2022-07-23T11:07:23;13.27;;;3.80;;
51286;SDS011;37364;46.974;18.916;2022-07-23T11:09:53;10.40;;;3.90;;
51286;SDS011;37364;46.974;18.916;2022-07-23T11:15:13;13.55;;;3.22;;
51286;SDS011;37364;46.974;18.916;2022-07-23T11:17:58;17.02;;;4.05;;
51286;SDS011;37364;46.974;18.916;2022-07-23T11:20:32;11.93;;;3.60;;
51286;SDS011;37364;46.974;18.916;2022-07-23T11:23:05;16.45;;;3.28;;
51286;SDS011;37364;46.974;18.916;2022-07-23T11:25:36;14.43;;;4.18;;
51286;SDS011;37364;46.974;18.916;2022-07-23T11:28:09;19.48;;;4.45;;
51286;SDS011;37364;46.974;18.916;2022-07-23T11:30:42;17.67;;;3.72;;
51286;SDS011;37364;46.974;18.916;2022-07-23T11:33:19;9.00;;;3.10;;
51286;SDS011;37364;46.974;18.916;2022-07-23T11:36:02;11.45;;;3.30;;
51286;SDS011;37364;46.974;18.916;2022-07-23T11:41:03;14.77;;;3.38;;
51286;SDS011;37364;46.974;18.916;2022-07-23T11:43:36;14.30;;;3.90;;
51286;SDS011;37364;46.974;18.916;2022-07-23T11:48:39;9.77;;;3.88;;
51286;SDS011;37364;46.974;18.916;2022-07-23T11:51:11;12.23;;;3.92;;
51286;SDS011;37364;46.974;18.916;2022-07-23T11:53:54;14.07;;;3.78;;
51286;SDS011;37364;46.974;18.916;2022-07-23T11:56:35;22.60;;;3.72;;
51286;SDS011;37364;46.974;18.916;2022-07-23T11:59:05;9.85;;;4.07;;
51286;SDS011;37364;46.974;18.916;2022-07-23T12:01:36;7.20;;;3.33;;
51286;SDS011;37364;46.974;18.916;2022-07-23T12:04:06;10.77;;;3.60;;
51286;SDS011;37364;46.974;18.916;2022-07-23T12:06:40;9.77;;;3.67;;
51286;SDS011;37364;46.974;18.916;2022-07-23T12:09:10;19.73;;;3.65;;
51286;SDS011;37364;46.974;18.916;2022-07-23T12:14:28;15.70;;;3.40;;
51286;SDS011;37364;46.974;18.916;2022-07-23T12:17:08;23.42;;;4.30;;
51286;SDS011;37364;46.974;18.916;2022-07-23T12:19:38;10.40;;;3.45;;
51286;SDS011;37364;46.974;18.916;2022-07-23T12:22:11;11.85;;;3.47;;
51286;SDS011;37364;46.974;18.916;2022-07-23T12:24:55;12.93;;;3.70;;
51286;SDS011;37364;46.974;18.916;2022-07-23T12:27:27;10.82;;;3.50;;
51286;SDS011;37364;46.974;18.916;2022-07-23T12:29:58;5.03;;;3.30;;
51286;SDS011;37364;46.974;18.916;2022-07-23T12:32:29;18.90;;;4.13;;
51286;SDS011;37364;46.974;18.916;2022-07-23T12:35:03;14.23;;;3.50;;
51286;SDS011;37364;46.974;18.916;2022-07-23T12:37:38;16.63;;;3.90;;
51286;SDS011;37364;46.974;18.916;2022-07-23T12:40:19;13.40;;;4.50;;
51286;SDS011;37364;46.974;18.916;2022-07-23T12:42:54;20.65;;;5.38;;
51286;SDS011;37364;46.974;18.916;2022-07-23T12:45:26;25.73;;;3.78;;
51286;SDS011;37364;46.974;18.916;2022-07-23T12:48:02;15.00;;;4.20;;
51286;SDS011;37364;46.974;18.916;2022-07-23T12:50:42;19.00;;;3.95;;
51286;SDS011;37364;46.974;18.916;2022-07-23T12:53:17;14.23;;;3.58;;
51286;SDS011;37364;46.974;18.916;2022-07-23T12:55:50;21.95;;;3.60;;
51286;SDS011;37364;46.974;18.916;2022-07-23T12:58:45;13.52;;;3.42;;
51286;SDS011;37364;46.974;18.916;2022-07-23T13:01:27;17.67;;;3.30;;
51286;SDS011;37364;46.974;18.916;2022-07-23T13:04:18;17.17;;;4.03;;
51286;SDS011;37364;46.974;18.916;2022-07-23T13:06:51;12.10;;;3.40;;
51286;SDS011;37364;46.974;18.916;2022-07-23T13:09:45;17.42;;;4.07;;
51286;SDS011;37364;46.974;18.916;2022-07-23T13:12:15;23.20;;;4.22;;
51286;SDS011;37364;46.974;18.916;2022-07-23T13:14:46;13.63;;;3.60;;
51286;SDS011;37364;46.974;18.916;2022-07-23T13:17:17;13.10;;;4.03;;
51286;SDS011;37364;46.974;18.916;2022-07-23T13:19:48;13.95;;;4.10;;
51286;SDS011;37364;46.974;18.916;2022-07-23T13:22:18;15.57;;;4.07;;
51286;SDS011;37364;46.974;18.916;2022-07-23T13:24:51;8.73;;;3.30;;
51286;SDS011;37364;46.974;18.916;2022-07-23T13:27:21;13.73;;;4.25;;
51286;SDS011;37364;46.974;18.916;2022-07-23T13:29:51;10.07;;;3.92;;
51286;SDS011;37364;46.974;18.916;2022-07-23T13:32:22;6.95;;;3.60;;
51286;SDS011;37364;46.974;18.916;2022-07-23T13:34:52;8.02;;;4.05;;
51286;SDS011;37364;46.974;18.916;2022-07-23T13:37:22;11.23;;;3.90;;
51286;SDS011;37364;46.974;18.916;2022-07-23T13:39:55;11.10;;;3.60;;
51286;SDS011;37364;46.974;18.916;2022-07-23T13:42:25;16.77;;;3.95;;
51286;SDS011;37364;46.974;18.916;2022-07-23T13:44:56;8.73;;;3.67;;
51286;SDS011;37364;46.974;18.916;2022-07-23T13:47:27;14.05;;;3.50;;
51286;SDS011;37364;46.974;18.916;2022-07-23T13:49:57;11.45;;;3.53;;
51286;SDS011;37364;46.974;18.916;2022-07-23T13:52:27;5.05;;;3.85;;
51286;SDS011;37364;46.974;18.916;2022-07-23T13:57:33;11.27;;;4.30;;
51286;SDS011;37364;46.974;18.916;2022-07-23T14:00:03;20.17;;;4.60;;
51286;SDS011;37364;46.974;18.916;2022-07-23T14:02:57;9.15;;;3.90;;
51286;SDS011;37364;46.974;18.916;2022-07-23T14:05:29;9.00;;;3.60;;
51286;SDS011;37364;46.974;18.916;2022-07-23T14:07:59;19.50;;;3.83;;
51286;SDS011;37364;46.974;18.916;2022-07-23T14:10:32;15.73;;;3.83;;
51286;SDS011;37364;46.974;18.916;2022-07-23T14:13:04;15.55;;;4.40;;
51286;SDS011;37364;46.974;18.916;2022-07-23T14:15:35;11.98;;;4.70;;
51286;SDS011;37364;46.974;18.916;2022-07-23T14:18:09;13.63;;;3.97;;
51286;SDS011;37364;46.974;18.916;2022-07-23T14:20:39;12.25;;;4.28;;
51286;SDS011;37364;46.974;18.916;2022-07-23T14:23:09;12.05;;;3.75;;
51286;SDS011;37364;46.974;18.916;2022-07-23T14:25:42;11.18;;;4.07;;
51286;SDS011;37364;46.974;18.916;2022-07-23T14:28:12;9.80;;;4.63;;
51286;SDS011;37364;46.974;18.916;2022-07-23T14:30:46;18.40;;;4.43;;
51286;SDS011;37364;46.974;18.916;2022-07-23T14:33:16;9.15;;;4.20;;
51286;SDS011;37364;46.974;18.916;2022-07-23T14:35:47;11.65;;;3.85;;
51286;SDS011;37364;46.974;18.916;2022-07-23T14:38:18;16.42;;;4.18;;
51286;SDS011;37364;46.974;18.916;2022-07-23T14:40:50;17.90;;;4.15;;
51286;SDS011;37364;46.974;18.916;2022-07-23T14:43:21;9.68;;;3.95;;
51286;SDS011;37364;46.974;18.916;2022-07-23T14:45:51;8.35;;;3.75;;
51286;SDS011;37364;46.974;18.916;2022-07-23T14:48:21;13.40;;;3.97;;
51286;SDS011;37364;46.974;18.916;2022-07-23T14:50:52;10.38;;;3.80;;
51286;SDS011;37364;46.974;18.916;2022-07-23T14:53:22;21.35;;;4.22;;
51286;SDS011;37364;46.974;18.916;2022-07-23T14:55:55;15.32;;;4.20;;
51286;SDS011;37364;46.974;18.916;2022-07-23T14:58:26;8.40;;;4.22;;
51286;SDS011;37364;46.974;18.916;2022-07-23T15:00:56;10.88;;;4.15;;
51286;SDS011;37364;46.974;18.916;2022-07-23T15:03:28;22.20;;;4.95;;
51286;SDS011;37364;46.974;18.916;2022-07-23T15:06:08;11.82;;;4.82;;
51286;SDS011;37364;46.974;18.916;2022-07-23T15:08:39;14.70;;;5.30;;
51286;SDS011;37364;46.974;18.916;2022-07-23T15:11:12;16.42;;;4.50;;
51286;SDS011;37364;46.974;18.916;2022-07-23T15:13:42;21.90;;;4.82;;
51286;SDS011;37364;46.974;18.916;2022-07-23T15:16:13;10.38;;;4.22;;
51286;SDS011;37364;46.974;18.916;2022-07-23T15:18:44;16.02;;;4.47;;
51286;SDS011;37364;46.974;18.916;2022-07-23T15:21:14;11.77;;;4.72;;
51286;SDS011;37364;46.974;18.916;2022-07-23T15:23:46;12.88;;;5.10;;